Time;durP1;ratioP1;P1;durP2;ratioP2;P2;SDS_P1;SDS_P2;PMS_P1;PMS_P2;Temp;Humidity;BMP_temperature;BMP_pressure;BME280_temperature;BME280_humidity;BME280_pressure;Samples;Min_cycle;Max_cycle;Signal;HPM_P1;HPM_P2
2022/01/23 00:02:02;;;;;;;;;4.00;3.00;;;;;12.15;40.68;99445.94;6292507;22;105326;-81
2022/01/23 00:04:30;;;;;;;;;2.75;2.00;;;;;12.15;41.17;99437.81;6292537;22;102501;-80
2022/01/23 00:06:58;;;;;;;;;3.00;3.00;;;;;12.13;40.80;99439.84;6301567;22;104241;-81
2022/01/23 00:09:25;;;;;;;;;4.00;3.50;;;;;12.13;40.96;99444.44;6302355;22;102514;-81
2022/01/23 00:11:54;;;;;;;;;3.00;2.50;;;;;12.13;40.56;99444.44;6301455;22;102275;-81
2022/01/23 00:19:40;;;;;;;;;2.50;2.00;;;;;12.07;40.93;99456.88;6306392;22;102204;-81
2022/01/23 00:22:09;;;;;;;;;3.75;3.00;;;;;12.09;40.81;99457.53;6300528;22;102459;-81
2022/01/23 00:32:55;;;;;;;;;2.75;2.25;;;;;12.02;40.76;99460.16;6307936;22;102809;-81
2022/01/23 00:35:22;;;;;;;;;3.00;2.50;;;;;12.01;40.86;99457.66;6277646;22;102164;-81
2022/01/23 00:37:49;;;;;;;;;3.75;2.25;;;;;12.03;41.42;99458.28;6304773;22;104134;-81
2022/01/23 00:40:16;;;;;;;;;2.00;1.00;;;;;12.03;40.90;99450.16;6303144;22;102138;-81
2022/01/23 00:42:44;;;;;;;;;3.75;3.75;;;;;12.04;41.09;99459.97;6305610;22;102402;-81
2022/01/23 00:45:30;;;;;;;;;3.25;2.00;;;;;12.02;41.50;99453.91;6306594;22;102116;-81
2022/01/23 00:48:07;;;;;;;;;2.00;2.00;;;;;12.01;40.82;99447.66;6294252;22;104174;-81
2022/01/23 00:50:39;;;;;;;;;2.00;1.75;;;;;12.03;41.04;99450.16;6286463;22;101963;-81
2022/01/23 00:53:10;;;;;;;;;3.50;2.00;;;;;12.01;40.67;99463.91;6296942;22;102493;-81
2022/01/23 00:55:38;;;;;;;;;4.75;2.25;;;;;12.00;40.93;99455.97;6283645;22;102034;-81
2022/01/23 00:58:05;;;;;;;;;1.25;0.00;;;;;11.98;40.64;99456.13;6307054;22;103774;-81
2022/01/23 01:00:32;;;;;;;;;3.75;2.25;;;;;11.98;40.35;99463.44;6296386;22;102550;-81
2022/01/23 01:03:00;;;;;;;;;2.50;2.00;;;;;11.99;40.71;99462.41;6267575;22;104280;-81
2022/01/23 01:05:27;;;;;;;;;3.00;2.00;;;;;11.98;41.06;99458.00;6253310;22;102496;-81
2022/01/23 01:07:55;;;;;;;;;2.50;2.00;;;;;11.98;40.94;99460.72;6242565;22;103958;-81
2022/01/23 01:10:32;;;;;;;;;4.25;2.25;;;;;11.96;41.19;99469.06;6277206;22;102365;-81
2022/01/23 01:13:01;;;;;;;;;1.50;1.50;;;;;11.95;41.25;99463.81;6272651;22;102389;-80
2022/01/23 01:15:40;;;;;;;;;2.00;2.00;;;;;11.92;41.31;99469.63;6304488;22;102190;-81
2022/01/23 01:32:02;;;;;;;;;1.00;1.00;;;;;11.91;40.49;99457.94;6279034;22;102787;-81
2022/01/23 01:34:39;;;;;;;;;3.50;3.25;;;;;11.93;40.80;99441.50;6306306;22;101946;-81
2022/01/23 01:37:09;;;;;;;;;3.00;2.75;;;;;11.92;40.40;99447.94;6291233;22;102581;-80
2022/01/23 01:39:41;;;;;;;;;3.75;2.00;;;;;11.90;40.47;99453.53;6275002;22;103919;-81
2022/01/23 01:42:08;;;;;;;;;2.00;2.00;;;;;11.90;40.45;99455.41;6305928;22;102427;-81
2022/01/23 01:44:35;;;;;;;;;4.00;2.00;;;;;11.89;40.49;99453.72;6305472;22;102088;-81
2022/01/23 01:47:02;;;;;;;;;1.25;1.00;;;;;11.87;41.20;99462.06;6296994;22;102082;-81
2022/01/23 01:49:32;;;;;;;;;2.00;2.00;;;;;11.89;41.03;99453.72;6298763;22;104007;-81
2022/01/23 01:52:00;;;;;;;;;4.00;2.00;;;;;11.87;40.72;99448.50;6283844;22;102142;-81
2022/01/23 01:54:29;;;;;;;;;3.00;2.00;;;;;11.86;40.81;99464.94;6293787;22;102179;-81
2022/01/23 01:57:08;;;;;;;;;2.00;2.00;;;;;11.85;40.61;99461.38;6295773;22;102185;-81
2022/01/23 02:10:36;;;;;;;;;2.00;2.00;;;;;11.84;40.97;99469.72;6256995;22;108697;-81
2022/01/23 02:13:12;;;;;;;;;4.00;2.00;;;;;11.84;40.42;99472.44;6209947;22;102347;-81
2022/01/23 02:16:06;;;;;;;;;2.00;2.00;;;;;11.84;40.83;99477.84;6270700;22;102245;-80
2022/01/23 02:51:49;;;;;;;;;5.75;3.25;;;;;11.73;40.60;99492.72;6290860;22;102081;-76
2022/01/23 02:54:28;;;;;;;;;4.75;2.00;;;;;11.74;40.34;99490.84;6298625;22;108513;-75
2022/01/23 02:56:58;;;;;;;;;3.50;3.00;;;;;11.74;40.87;99483.56;6303069;22;101948;-76
2022/01/23 02:59:29;;;;;;;;;4.00;2.50;;;;;11.76;40.83;99476.06;6300826;22;102371;-76
2022/01/23 03:04:32;;;;;;;;;4.00;3.00;;;;;11.75;40.40;99474.41;6305208;22;104096;-75
2022/01/23 03:07:18;;;;;;;;;7.75;3.25;;;;;11.74;40.24;99471.88;6275998;22;102228;-75
2022/01/23 03:09:59;;;;;;;;;2.50;2.00;;;;;11.81;40.62;99478.22;6295999;22;102370;-76
2022/01/23 03:15:30;;;;;;;;;3.75;3.00;;;;;11.89;40.20;99475.41;6249166;22;108631;-75
2022/01/23 03:31:33;;;;;;;;;3.75;3.75;;;;;12.13;40.37;99485.09;6305369;22;102124;-75
2022/01/23 03:34:00;;;;;;;;;2.50;2.50;;;;;12.15;40.26;99486.63;6299159;22;104167;-76
2022/01/23 03:36:27;;;;;;;;;3.25;3.00;;;;;12.20;40.16;99484.19;6305598;22;103974;-75
2022/01/23 03:38:54;;;;;;;;;3.25;3.00;;;;;12.23;40.30;99489.22;6290383;22;102447;-75
2022/01/23 03:41:21;;;;;;;;;7.00;5.25;;;;;12.25;40.51;99483.56;6298128;22;102132;-75
2022/01/23 03:43:49;;;;;;;;;5.25;3.50;;;;;12.28;39.72;99483.22;6298147;22;101922;-75
2022/01/23 03:51:47;;;;;;;;;7.25;4.50;;;;;12.32;39.99;99477.22;6282101;22;102157;-81
2022/01/23 03:54:14;;;;;;;;;4.00;4.00;;;;;12.33;40.20;99476.19;6279034;22;102314;-80
2022/01/23 03:56:41;;;;;;;;;4.50;4.25;;;;;12.35;40.11;99482.25;6300973;22;103142;-81
2022/01/23 03:59:08;;;;;;;;;5.00;3.75;;;;;12.38;39.99;99481.84;6305986;22;101883;-81
2022/01/23 04:01:35;;;;;;;;;5.00;4.00;;;;;12.39;39.28;99480.84;6301499;22;103744;-81
2022/01/23 04:04:10;;;;;;;;;7.00;5.00;;;;;12.40;39.50;99485.25;6299689;22;102526;-81
2022/01/23 04:06:37;;;;;;;;;4.00;4.00;;;;;12.41;40.35;99480.66;6295229;22;107782;-81
2022/01/23 04:09:04;;;;;;;;;4.75;4.00;;;;;12.44;39.94;99488.41;6282234;22;102394;-81
2022/01/23 04:11:31;;;;;;;;;7.00;4.00;;;;;12.43;40.28;99492.97;6303966;22;102109;-81
2022/01/23 04:14:04;;;;;;;;;5.25;4.00;;;;;12.43;39.75;99484.00;6296251;22;102534;-81
2022/01/23 04:33:29;;;;;;;;;7.50;4.50;;;;;12.52;39.79;99524.38;6277495;22;102217;-81
2022/01/23 05:00:47;;;;;;;;;8.00;7.00;;;;;12.39;39.91;99526.09;6297156;22;104113;-81
2022/01/23 05:04:10;;;;;;;;;7.50;4.25;;;;;12.35;40.02;99512.09;6302950;22;102381;-81
2022/01/23 05:06:05;;;;;;;;;5.50;4.75;;;;;12.32;39.08;99515.19;6284909;22;102277;-81
2022/01/23 05:08:35;;;;;;;;;5.75;4.75;;;;;12.32;39.13;99523.31;6307861;22;102577;-81
2022/01/23 05:11:02;;;;;;;;;5.00;4.00;;;;;12.31;40.01;99523.50;6302152;22;104140;-81
2022/01/23 05:13:30;;;;;;;;;7.50;4.75;;;;;12.33;39.57;99530.44;6300775;22;102325;-81
2022/01/23 05:15:57;;;;;;;;;4.75;3.00;;;;;12.33;39.18;99537.72;6256705;22;102294;-81
2022/01/23 05:18:24;;;;;;;;;6.25;5.25;;;;;12.32;39.33;99538.75;6281120;22;102135;-81
2022/01/23 05:21:01;;;;;;;;;2.00;0.00;;;;;12.30;39.21;99533.50;6298651;22;103669;-81
2022/01/23 05:23:29;;;;;;;;;5.00;5.00;;;;;12.29;39.71;99542.66;6294786;22;102081;-81
2022/01/23 05:25:56;;;;;;;;;7.25;5.00;;;;;12.27;39.48;99555.59;6297470;22;102264;-81
2022/01/23 05:28:22;;;;;;;;;5.50;4.00;;;;;12.25;39.90;99545.94;6301807;22;102215;-81
2022/01/23 05:30:50;;;;;;;;;5.25;4.50;;;;;12.22;39.64;99549.88;6302457;22;103968;-81
2022/01/23 05:33:17;;;;;;;;;7.75;5.75;;;;;12.21;39.77;99544.63;6293127;22;102227;-81
2022/01/23 05:35:44;;;;;;;;;4.25;4.00;;;;;12.20;39.53;99559.25;6301711;22;102094;-81
2022/01/23 05:38:11;;;;;;;;;4.00;3.00;;;;;12.18;39.91;99553.16;6307688;22;102289;-81
2022/01/23 05:40:39;;;;;;;;;7.75;5.00;;;;;12.17;39.23;99546.88;6302570;22;104080;-81
2022/01/23 05:43:06;;;;;;;;;3.50;3.50;;;;;12.16;39.98;99552.53;6300886;22;102431;-81
2022/01/23 05:45:37;;;;;;;;;8.00;3.50;;;;;12.16;39.37;99541.69;6312188;22;102210;-81
2022/01/23 05:48:04;;;;;;;;;7.50;4.50;;;;;12.13;39.72;99551.00;6303837;22;102148;-81
2022/01/23 05:50:31;;;;;;;;;7.00;4.25;;;;;12.12;39.94;99562.03;6301177;22;104274;-81
2022/01/23 05:52:58;;;;;;;;;6.00;4.00;;;;;12.07;40.05;99563.44;6308554;22;102436;-81
2022/01/23 05:55:25;;;;;;;;;6.75;5.25;;;;;12.03;39.86;99550.44;6309039;22;102347;-81
2022/01/23 05:57:52;;;;;;;;;5.25;4.00;;;;;12.02;39.99;99551.50;6306603;22;102543;-81
2022/01/23 06:00:19;;;;;;;;;4.50;4.00;;;;;12.00;39.79;99551.69;6308973;22;103905;-81
2022/01/23 06:02:46;;;;;;;;;6.75;4.00;;;;;12.00;40.30;99551.69;6311521;22;102445;-81
2022/01/23 06:05:14;;;;;;;;;5.25;4.00;;;;;12.01;40.38;99541.69;6306564;22;102094;-76
2022/01/23 06:07:42;;;;;;;;;5.25;3.00;;;;;12.01;39.88;99555.22;6305182;22;102121;-81
2022/01/23 06:10:21;;;;;;;;;7.75;5.50;;;;;11.99;39.64;99552.69;6308858;22;109106;-81
2022/01/23 06:12:49;;;;;;;;;4.00;3.75;;;;;12.00;40.09;99556.25;6293827;22;102554;-81
2022/01/23 06:15:16;;;;;;;;;3.00;3.00;;;;;11.99;40.07;99554.56;6303128;22;101891;-81
2022/01/23 06:17:43;;;;;;;;;6.00;4.75;;;;;11.98;40.00;99561.84;6312671;22;102105;-81
2022/01/23 06:20:12;;;;;;;;;4.50;4.00;;;;;11.98;40.34;99566.44;6307178;22;108233;-81
2022/01/23 06:22:39;;;;;;;;;4.25;3.50;;;;;11.96;39.87;99574.75;6275599;22;102287;-81
2022/01/23 06:25:09;;;;;;;;;4.50;4.50;;;;;11.96;39.82;99560.38;6302792;22;102216;-81
2022/01/23 06:27:36;;;;;;;;;4.75;4.00;;;;;11.95;39.95;99572.22;6312445;22;102536;-81
2022/01/23 06:30:04;;;;;;;;;5.25;5.25;;;;;11.94;39.47;99573.25;6273003;22;103954;-79
2022/01/23 06:32:31;;;;;;;;;6.75;5.25;;;;;11.92;40.17;99564.47;6302216;22;102284;-82
2022/01/23 06:34:58;;;;;;;;;7.00;4.50;;;;;11.91;40.39;99571.75;6275904;22;102015;-82
2022/01/23 06:37:25;;;;;;;;;6.50;5.25;;;;;11.91;39.95;99579.06;6309021;22;102488;-82
2022/01/23 06:39:52;;;;;;;;;7.00;4.00;;;;;11.90;40.52;99585.50;6297965;22;103983;-82
2022/01/23 06:42:19;;;;;;;;;7.00;6.50;;;;;11.88;40.14;99601.13;6295574;22;102022;-81
2022/01/23 06:44:46;;;;;;;;;6.25;4.00;;;;;11.85;40.00;99605.00;6305593;22;101878;-81
2022/01/23 06:47:13;;;;;;;;;4.50;4.00;;;;;11.85;39.93;99612.31;6315681;22;103006;-82
2022/01/23 06:49:40;;;;;;;;;8.50;5.25;;;;;11.83;39.59;99617.09;6302665;22;106970;-82
2022/01/23 06:52:07;;;;;;;;;7.50;6.75;;;;;11.82;40.42;99613.53;6312320;22;102507;-81
2022/01/23 06:54:34;;;;;;;;;6.25;5.25;;;;;11.82;40.05;99604.56;6307178;22;102197;-82
2022/01/23 06:57:01;;;;;;;;;7.50;4.50;;;;;11.81;39.99;99598.28;6307320;22;102322;-82
2022/01/23 06:59:28;;;;;;;;;4.00;4.00;;;;;11.82;40.22;99609.97;6301495;22;103925;-81
2022/01/23 07:01:55;;;;;;;;;7.00;5.25;;;;;11.83;40.06;99598.13;6307832;22;104600;-85
2022/01/23 07:04:23;;;;;;;;;2.00;2.00;;;;;11.82;39.89;99601.84;6312777;22;102193;-81
2022/01/23 07:06:51;;;;;;;;;7.00;6.25;;;;;11.87;39.83;99607.56;6313477;22;102110;-75
2022/01/23 07:09:18;;;;;;;;;5.50;5.25;;;;;11.91;39.71;99617.00;6264399;22;104121;-75
2022/01/23 07:11:46;;;;;;;;;4.00;4.00;;;;;11.93;40.12;99613.06;6313692;22;102718;-76
2022/01/23 07:14:13;;;;;;;;;5.25;5.25;;;;;11.96;39.37;99633.53;6309946;22;102553;-76
2022/01/23 07:16:40;;;;;;;;;5.00;4.00;;;;;11.96;39.28;99636.25;6308619;22;102118;-76
2022/01/23 07:19:07;;;;;;;;;6.75;5.50;;;;;11.98;39.71;99631.47;6310946;22;104136;-76
2022/01/23 07:21:34;;;;;;;;;7.25;6.25;;;;;12.00;39.78;99632.16;6312466;22;101943;-76
2022/01/23 07:24:01;;;;;;;;;6.50;5.25;;;;;11.93;39.77;99623.91;6309679;22;102592;-79
2022/01/23 07:26:29;;;;;;;;;9.50;6.00;;;;;12.03;40.11;99635.31;6305858;22;102631;-73
2022/01/23 07:28:59;;;;;;;;;5.25;4.75;;;;;12.06;40.04;99628.72;6312632;22;103959;-75
2022/01/23 07:31:54;;;;;;;;;6.00;4.00;;;;;12.06;39.87;99632.25;6310152;22;102054;-75
2022/01/23 07:34:19;;;;;;;;;7.00;6.00;;;;;12.09;39.85;99636.47;6302860;22;101922;-75
2022/01/23 07:36:46;;;;;;;;;5.00;5.00;;;;;12.10;39.52;99632.72;6313137;22;102511;-75
2022/01/23 07:39:13;;;;;;;;;7.75;5.25;;;;;12.14;39.00;99642.16;6300576;22;109660;-75
2022/01/23 07:41:40;;;;;;;;;6.00;6.00;;;;;12.17;38.94;99640.94;6308230;22;102376;-75
2022/01/23 07:44:07;;;;;;;;;7.00;4.25;;;;;12.18;39.36;99643.47;6311415;22;101959;-75
2022/01/23 07:46:34;;;;;;;;;10.00;6.00;;;;;12.21;39.52;99645.81;6311888;22;102454;-75
2022/01/23 07:49:01;;;;;;;;;5.25;5.25;;;;;12.19;38.92;99661.44;6305918;22;104004;-75
2022/01/23 07:51:28;;;;;;;;;8.75;6.75;;;;;12.20;39.43;99665.84;6300427;22;102099;-75
2022/01/23 07:53:55;;;;;;;;;7.75;7.00;;;;;12.21;39.65;99667.50;6307805;22;102476;-75
2022/01/23 07:56:22;;;;;;;;;10.50;6.00;;;;;12.18;39.52;99657.03;6307834;22;102265;-75
2022/01/23 07:58:49;;;;;;;;;13.50;7.25;;;;;12.19;39.30;99666.00;6303884;22;104158;-75
2022/01/23 08:01:16;;;;;;;;;4.75;4.75;;;;;12.17;39.51;99663.47;6306290;22;102253;-74
2022/01/23 08:03:44;;;;;;;;;7.00;7.00;;;;;12.18;39.74;99669.75;6309627;22;102672;-75
2022/01/23 08:06:12;;;;;;;;;7.75;7.50;;;;;12.18;38.94;99675.16;6306307;22;102395;-74
2022/01/23 08:08:40;;;;;;;;;7.25;7.25;;;;;12.18;39.52;99686.03;6306320;22;104171;-75
2022/01/23 08:11:07;;;;;;;;;8.75;7.75;;;;;12.16;39.58;99688.91;6289821;22;101852;-75
2022/01/23 08:13:34;;;;;;;;;4.50;4.50;;;;;12.16;39.53;99688.09;6306118;22;102171;-75
2022/01/23 08:16:01;;;;;;;;;6.00;4.25;;;;;12.13;38.86;99694.69;6301065;22;102454;-75
2022/01/23 08:18:28;;;;;;;;;10.75;8.25;;;;;12.13;39.22;99694.69;6272254;22;104239;-75
2022/01/23 08:20:55;;;;;;;;;8.00;7.50;;;;;12.14;39.54;99698.25;6306583;22;102392;-75
2022/01/23 08:23:22;;;;;;;;;9.00;7.25;;;;;12.11;39.44;99696.78;6282777;22;105471;-75
2022/01/23 08:25:49;;;;;;;;;7.50;6.50;;;;;12.11;39.91;99701.34;6312809;22;102462;-75
2022/01/23 08:28:16;;;;;;;;;9.50;8.25;;;;;12.06;39.60;99699.19;6310522;22;104156;-74
2022/01/23 08:30:43;;;;;;;;;7.00;7.00;;;;;12.06;38.96;99704.59;6285528;22;102475;-75
2022/01/23 08:33:11;;;;;;;;;9.00;8.00;;;;;12.06;38.99;99716.31;6305215;22;102488;-75
2022/01/23 08:35:42;;;;;;;;;8.00;7.75;;;;;12.07;39.27;99714.41;6308524;22;109941;-75
2022/01/23 08:38:09;;;;;;;;;9.00;9.00;;;;;12.08;38.77;99718.81;6282968;22;103974;-75
2022/01/23 08:43:13;;;;;;;;;7.00;5.50;;;;;12.06;39.00;99715.47;6299833;22;101830;-75
2022/01/23 08:45:40;;;;;;;;;9.50;8.00;;;;;12.05;39.45;99719.19;6300725;22;103786;-75
2022/01/23 08:48:07;;;;;;;;;8.00;7.50;;;;;12.04;39.05;99712.91;6276180;22;103995;-75
2022/01/23 08:50:34;;;;;;;;;7.50;6.50;;;;;12.03;39.58;99721.22;6294460;22;102318;-75
2022/01/23 08:53:01;;;;;;;;;8.00;7.00;;;;;12.03;39.07;99715.81;6291964;22;102468;-75
2022/01/23 08:55:29;;;;;;;;;8.25;7.75;;;;;12.02;39.28;99724.97;6306432;22;104032;-75
2022/01/23 08:58:00;;;;;;;;;10.25;7.50;;;;;12.01;38.91;99724.13;6289151;22;104018;-82
2022/01/23 09:00:28;;;;;;;;;9.50;7.00;;;;;12.02;38.96;99738.53;6250713;22;102129;-82
2022/01/23 09:02:55;;;;;;;;;7.75;7.00;;;;;12.01;39.23;99736.84;6296240;22;102204;-82
2022/01/23 09:05:23;;;;;;;;;7.75;7.75;;;;;11.99;38.87;99742.44;6285898;22;102407;-81
2022/01/23 09:07:51;;;;;;;;;9.50;7.50;;;;;12.00;38.94;99748.69;6292510;22;103962;-82
2022/01/23 09:10:25;;;;;;;;;7.75;7.75;;;;;11.99;39.40;99752.44;6312085;22;101879;-82
2022/01/23 09:13:10;;;;;;;;;9.25;8.50;;;;;11.97;39.15;99760.75;6247676;22;102214;-81
2022/01/23 09:15:37;;;;;;;;;13.00;9.00;;;;;11.95;38.93;99757.38;6301866;22;102384;-81
2022/01/23 09:18:04;;;;;;;;;7.75;7.00;;;;;11.95;39.35;99761.97;6283013;22;103989;-82
2022/01/23 09:20:31;;;;;;;;;11.50;9.00;;;;;11.93;39.14;99758.59;6311296;22;102573;-81
2022/01/23 09:22:58;;;;;;;;;9.75;8.00;;;;;11.93;39.57;99759.41;6305944;22;102495;-82
2022/01/23 09:25:25;;;;;;;;;10.25;7.75;;;;;11.94;39.02;99765.69;6274714;22;102531;-82
2022/01/23 09:27:53;;;;;;;;;9.75;8.00;;;;;11.91;39.54;99757.94;6306920;22;104050;-81
2022/01/23 09:30:22;;;;;;;;;9.50;7.50;;;;;11.94;38.94;99761.09;6281398;22;102349;-81
2022/01/23 09:32:49;;;;;;;;;6.50;6.50;;;;;11.94;39.22;99765.69;6296886;22;102090;-82
2022/01/23 09:35:18;;;;;;;;;7.00;7.00;;;;;11.94;39.52;99771.94;6306546;22;102360;-82
2022/01/23 09:37:46;;;;;;;;;8.75;7.50;;;;;11.99;39.64;99765.97;6308119;22;102565;-82
2022/01/23 09:40:13;;;;;;;;;7.00;6.00;;;;;12.01;39.31;99772.09;6278455;22;102254;-82
2022/01/23 09:42:45;;;;;;;;;9.50;8.00;;;;;12.03;38.92;99761.88;6294150;22;102477;-82
2022/01/23 09:45:13;;;;;;;;;8.25;7.00;;;;;12.04;38.81;99763.56;6291134;22;102137;-82
2022/01/23 09:47:41;;;;;;;;;9.00;8.50;;;;;12.06;38.96;99766.97;6291912;22;103990;-82
2022/01/23 09:50:09;;;;;;;;;10.25;9.00;;;;;12.07;39.21;99760.50;6258256;22;102296;-82
2022/01/23 09:52:36;;;;;;;;;13.00;8.00;;;;;12.07;39.21;99750.50;6297679;22;102531;-82
2022/01/23 09:55:10;;;;;;;;;13.50;9.00;;;;;12.08;38.78;99744.06;6245735;22;102637;-82
2022/01/23 09:57:42;;;;;;;;;7.75;6.75;;;;;12.10;38.67;99745.75;6272795;22;103952;-82
2022/01/23 10:00:11;;;;;;;;;8.00;8.00;;;;;12.11;38.73;99756.41;6266106;22;102309;-81
2022/01/23 10:02:38;;;;;;;;;9.50;9.00;;;;;12.11;38.74;99750.16;6279109;22;102380;-81
2022/01/23 10:05:06;;;;;;;;;9.75;8.50;;;;;12.10;39.06;99749.31;6277202;22;102255;-81
2022/01/23 10:07:37;;;;;;;;;12.75;8.00;;;;;12.11;39.25;99753.72;6273963;22;103968;-81
2022/01/23 10:10:16;;;;;;;;;7.75;7.75;;;;;12.11;39.11;99759.13;6263303;22;102183;-81
2022/01/23 10:12:48;;;;;;;;;7.00;7.00;;;;;12.10;38.78;99754.72;6277983;22;102345;-81
2022/01/23 10:15:16;;;;;;;;;9.00;6.50;;;;;12.11;38.82;99761.84;6275786;22;102665;-81
2022/01/23 10:17:43;;;;;;;;;11.50;8.00;;;;;12.12;39.09;99741.81;6269133;22;103981;-82
2022/01/23 10:20:11;;;;;;;;;8.75;8.00;;;;;12.13;38.75;99751.63;6277603;22;104431;-82
2022/01/23 10:22:41;;;;;;;;;13.75;9.25;;;;;12.14;38.60;99747.91;6279112;22;102378;-81
2022/01/23 10:25:13;;;;;;;;;7.00;7.00;;;;;12.16;38.56;99747.75;6264499;22;102087;-81
2022/01/23 10:28:02;;;;;;;;;8.50;7.75;;;;;12.16;38.77;99735.00;6262431;22;103932;-81
2022/01/23 10:30:35;;;;;;;;;8.75;8.25;;;;;12.15;38.45;99741.47;6271727;22;102534;-81
2022/01/23 10:33:10;;;;;;;;;6.75;6.75;;;;;12.15;38.41;99741.47;6263208;22;102434;-82
2022/01/23 10:36:10;;;;;;;;;10.25;9.50;;;;;12.16;39.07;99742.31;6273837;22;102124;-81
2022/01/23 10:39:04;;;;;;;;;7.75;2.00;;;;;12.16;38.95;99743.13;6279636;22;107757;-81
2022/01/23 10:41:59;;;;;;;;;9.25;8.00;;;;;12.16;38.38;99751.25;6295970;22;102239;-81
2022/01/23 10:49:56;;;;;;;;;8.00;8.00;;;;;12.15;38.70;99755.03;6264167;22;108737;-81
2022/01/23 10:52:28;;;;;;;;;8.00;7.00;;;;;12.15;39.15;99755.03;6273591;22;102395;-81
2022/01/23 10:54:55;;;;;;;;;12.75;10.00;;;;;12.15;38.59;99757.72;6278641;22;102587;-81
2022/01/23 10:57:22;;;;;;;;;10.00;9.00;;;;;12.16;39.25;99761.28;6287932;22;102367;-81
2022/01/23 10:59:50;;;;;;;;;9.25;8.25;;;;;12.14;39.55;99745.19;6310177;22;103993;-81
2022/01/23 11:02:25;;;;;;;;;8.75;8.75;;;;;12.15;38.83;99746.03;6310837;22;102252;-80
2022/01/23 11:05:05;;;;;;;;;8.75;7.00;;;;;12.15;38.80;99727.91;6310437;22;102309;-80
2022/01/23 11:07:46;;;;;;;;;10.50;8.75;;;;;12.13;38.67;99743.50;6240022;22;102542;-81
2022/01/23 11:10:21;;;;;;;;;10.25;9.75;;;;;12.14;39.25;99734.34;6275835;22;103767;-81
2022/01/23 11:18:11;;;;;;;;;13.75;10.00;;;;;12.17;38.58;99731.25;6300551;22;102309;-81
2022/01/23 11:20:41;;;;;;;;;10.25;9.50;;;;;12.16;38.72;99726.88;6275467;22;103620;-82
2022/01/23 11:23:16;;;;;;;;;14.50;10.50;;;;;12.17;39.16;99728.56;6306583;22;102362;-81
2022/01/23 11:26:04;;;;;;;;;12.00;9.00;;;;;12.17;38.94;99728.56;6303733;22;102338;-82
2022/01/23 11:28:39;;;;;;;;;12.75;9.50;;;;;12.15;38.71;99733.34;6307217;22;104134;-81
2022/01/23 11:31:10;;;;;;;;;11.25;9.75;;;;;12.15;40.15;99736.03;6279197;22;103381;-84
2022/01/23 11:33:37;;;;;;;;;14.25;11.75;;;;;12.16;39.78;99735.00;6303208;22;102246;-79
2022/01/23 11:36:05;;;;;;;;;14.50;11.25;;;;;12.13;39.90;99734.53;6298537;22;102122;-80
2022/01/23 11:38:32;;;;;;;;;13.25;10.00;;;;;12.09;39.35;99731.34;6309301;22;102115;-80
2022/01/23 11:54:51;;;;;;;;;13.75;11.25;;;;;12.12;39.67;99747.22;6302367;22;103321;-82
2022/01/23 11:57:33;;;;;;;;;12.75;10.00;;;;;12.10;39.11;99757.44;6269315;22;102514;-82
2022/01/23 12:00:04;;;;;;;;;13.25;10.25;;;;;12.08;39.21;99751.34;6304029;22;102524;-81
2022/01/23 12:02:36;;;;;;;;;13.75;10.75;;;;;12.09;39.00;99758.47;6299721;22;103481;-82
2022/01/23 12:05:14;;;;;;;;;14.25;11.00;;;;;12.11;39.72;99751.00;6300618;22;102570;-82
2022/01/23 12:08:18;;;;;;;;;10.75;9.50;;;;;12.12;39.09;99746.38;6301487;22;107904;-81
2022/01/23 12:11:35;;;;;;;;;12.25;9.00;;;;;12.13;39.22;99748.06;6302432;22;102139;-81
2022/01/23 12:17:03;;;;;;;;;11.75;10.50;;;;;12.11;39.40;99751.00;6297978;22;102427;-78
2022/01/23 12:19:55;;;;;;;;;10.00;9.25;;;;;12.09;39.90;99750.31;6277799;22;102118;-75
2022/01/23 12:22:39;;;;;;;;;15.50;13.50;;;;;12.10;39.70;99760.16;6257488;22;102310;-75
2022/01/23 12:25:23;;;;;;;;;10.50;9.50;;;;;12.11;39.94;99763.72;6301140;22;104990;-75
2022/01/23 12:28:17;;;;;;;;;12.00;9.75;;;;;12.11;39.42;99752.84;6298272;22;102174;-75
2022/01/23 12:30:45;;;;;;;;;9.25;9.00;;;;;12.10;40.29;99754.72;6298221;22;102306;-75
2022/01/23 12:33:17;;;;;;;;;10.00;8.50;;;;;12.10;40.41;99754.72;6266124;22;102343;-75
2022/01/23 12:35:46;;;;;;;;;12.00;10.50;;;;;12.10;39.23;99762.84;6282758;22;103979;-75
2022/01/23 12:38:13;;;;;;;;;10.25;10.25;;;;;12.09;40.19;99772.00;6300952;22;102215;-75
2022/01/23 12:40:45;;;;;;;;;11.00;9.00;;;;;12.08;39.96;99768.44;6292371;22;102649;-75
2022/01/23 12:43:21;;;;;;;;;13.25;10.00;;;;;12.09;39.72;99774.72;6257062;22;105859;-75
2022/01/23 12:46:01;;;;;;;;;10.50;8.25;;;;;12.08;39.81;99773.03;6292421;22;109058;-75
2022/01/23 12:48:38;;;;;;;;;15.75;10.75;;;;;12.02;39.75;99758.31;6276853;22;101984;-75
2022/01/23 12:51:32;;;;;;;;;9.00;8.50;;;;;12.06;39.71;99773.22;6242751;22;102383;-75
2022/01/23 12:54:00;;;;;;;;;13.25;9.25;;;;;12.06;40.43;99766.97;6294127;22;102273;-76
2022/01/23 12:56:30;;;;;;;;;9.00;8.75;;;;;12.06;39.69;99765.09;6274986;22;104061;-75
2022/01/23 12:59:04;;;;;;;;;12.00;9.25;;;;;12.07;39.71;99758.63;6257025;22;102668;-75
2022/01/23 13:01:31;;;;;;;;;10.50;9.50;;;;;12.06;40.44;99762.38;6292221;22;102135;-76
2022/01/23 13:04:00;;;;;;;;;12.00;9.00;;;;;12.06;40.13;99759.69;6306059;22;102150;-81
2022/01/23 13:07:01;;;;;;;;;10.25;9.00;;;;;12.07;40.64;99766.75;6292724;22;102855;-76
2022/01/23 13:12:36;;;;;;;;;13.25;9.25;;;;;12.05;40.16;99768.81;6294492;22;102414;-75
2022/01/23 13:26:39;;;;;;;;;9.50;8.75;;;;;12.03;40.03;99764.59;6304034;22;102548;-75
2022/01/23 13:32:01;;;;;;;;;9.00;7.00;;;;;12.02;39.53;99762.94;6270343;22;104191;-75
2022/01/23 13:34:32;;;;;;;;;9.25;7.75;;;;;12.02;39.82;99763.75;6241423;22;104019;-75
2022/01/23 13:37:06;;;;;;;;;11.50;8.75;;;;;12.01;39.46;99761.25;6303134;22;103255;-75
2022/01/23 13:39:37;;;;;;;;;8.50;8.25;;;;;12.00;39.43;99759.53;6302808;22;104083;-75
2022/01/23 13:42:27;;;;;;;;;10.50;9.00;;;;;12.00;39.27;99760.38;6304793;22;102499;-75
2022/01/23 13:59:29;;;;;;;;;8.75;8.50;;;;;11.96;40.17;99755.53;6277994;22;102657;-75
2022/01/23 14:04:34;;;;;;;;;7.50;7.50;;;;;11.93;40.27;99766.72;6258258;22;102781;-75
2022/01/23 14:07:01;;;;;;;;;9.75;7.00;;;;;11.89;39.93;99757.25;6295271;22;102518;-75
2022/01/23 14:09:29;;;;;;;;;9.75;8.75;;;;;11.89;40.15;99758.09;6289208;22;102115;-75
2022/01/23 14:11:56;;;;;;;;;9.00;7.00;;;;;11.88;39.43;99761.84;6299412;22;103943;-75
2022/01/23 14:14:26;;;;;;;;;8.00;7.00;;;;;11.89;39.78;99762.66;6303018;22;102229;-75
2022/01/23 14:16:55;;;;;;;;;9.50;7.75;;;;;11.87;39.89;99775.56;6300307;22;102350;-75
2022/01/23 14:19:24;;;;;;;;;9.50;7.75;;;;;11.86;39.67;99780.16;6257077;22;102345;-75
2022/01/23 14:21:56;;;;;;;;;7.00;7.00;;;;;11.85;39.61;99785.75;6303825;22;108792;-75
2022/01/23 14:24:29;;;;;;;;;9.00;8.00;;;;;11.84;39.68;99792.19;6250478;22;102161;-74
2022/01/23 14:26:57;;;;;;;;;6.25;5.00;;;;;11.84;39.86;99784.06;6289403;22;102217;-75
2022/01/23 14:29:24;;;;;;;;;4.00;3.00;;;;;11.82;40.14;99795.09;6306567;22;102312;-75
2022/01/23 14:32:15;;;;;;;;;10.25;8.00;;;;;11.81;39.90;99792.53;6307175;22;108668;-75
2022/01/23 14:34:42;;;;;;;;;7.25;7.25;;;;;11.81;40.19;99803.38;6278645;22;102320;-75
2022/01/23 14:37:09;;;;;;;;;8.00;7.50;;;;;11.79;39.58;99814.41;6267753;22;102082;-75
2022/01/23 14:39:36;;;;;;;;;8.50;8.00;;;;;11.77;39.86;99807.47;6309585;22;102442;-75
2022/01/23 14:42:11;;;;;;;;;8.00;7.25;;;;;11.76;39.98;99812.06;6274283;22;103960;-75
2022/01/23 14:44:39;;;;;;;;;7.50;7.00;;;;;11.76;39.36;99817.47;6298241;22;102164;-75
2022/01/23 14:47:07;;;;;;;;;11.00;8.25;;;;;11.75;39.90;99810.38;6296418;22;102292;-74
2022/01/23 14:49:35;;;;;;;;;8.25;7.75;;;;;11.74;39.86;99807.84;6303333;22;102327;-74
2022/01/23 14:52:03;;;;;;;;;7.00;7.00;;;;;11.73;40.02;99811.56;6299659;22;104057;-74
2022/01/23 14:54:32;;;;;;;;;7.25;7.00;;;;;11.72;39.95;99809.84;6266862;22;102428;-75
2022/01/23 14:57:01;;;;;;;;;11.00;7.00;;;;;11.74;40.08;99814.13;6302556;22;103032;-75
2022/01/23 14:59:30;;;;;;;;;7.75;7.00;;;;;11.77;39.90;99813.75;6299164;22;102648;-75
2022/01/23 15:01:57;;;;;;;;;6.75;6.25;;;;;11.79;39.53;99819.00;6268029;22;103992;-75
2022/01/23 15:04:24;;;;;;;;;9.50;8.50;;;;;11.78;39.55;99811.88;6300379;22;102242;-75